Cannon Air Force Base
KCVS : now visible

Airfield :











YOU CAN JOIN US ON...

 
LOGIN :

Register | Disclaimer

   EN    FR    IT 

 









Legend :    VFR   Marginal VFR   IFR   Intensive IFR   Very Intensive IFR
Visi :
Ceiling :
>= 8 km
>= 3000ft
5 to 8 km
1000 to 3000 ft
1500m to 5 km
500 to 1000 ft
800 to 1500m
200 to 500 ft
< 800m
< 200 ft
Symbols :   Thunderstorms  Fog  Heavy snow  Heavy precipitations  Wind > 20 kt






- Airport Elevation : 4295 ft


KCVS - Cannon Air Force Base

CURRENT METAR :
  • 161318Z AUTO 06005KT 10SM OVC013 M01/M02 A3003 RMK AO2 CIG 010 RWY22 SLP181 $

EXPIRED METARs :
  • 161258Z AUTO 05006KT 10SM FEW010 OVC015 M01/M02 A3002 RMK AO2 CIG 010 RWY22 CIG 013 RWY31 SLP178 T10141025 $
  • 161208Z AUTO 05005KT 10SM OVC012 M01/M02 A2999 RMK AO2 CIG 011 RWY22 SLP167 $
  • 161158Z AUTO 05004KT 10SM BKN009 OVC014 M01/M02 A2999 RMK AO2 BKN V OVC SLP167 T10141024 11011 21016 52006 $
  • 161128Z AUTO 05007KT 10SM OVC009 M01/M02 A2998 RMK AO2 SLP160 $
  • 161118Z AUTO 03007KT 10SM OVC010 M01/M02 A2998 RMK AO2 CIG 008 RWY22 CIG 008 RWY31 SLP160 $
  • 161058Z AUTO 36006KT 10SM OVC009 M01/M02 A2999 RMK AO2 CIG 008 RWY22 CIG 008 RWY31 SLP164 T10131021 $
  • 161048Z AUTO 01008KT 10SM OVC009 M01/M02 A2999 RMK AO2 CIG 009V011 OVC V BKN CIG 008 RWY22 CIG 008 RWY31 SLP164 $

TAF TAF KCVS
Valid from the 16 at 10:00 until the 17 at 16:00 UTC


161000Z 1610/1716 36008KT 9999 OVC009 620093 QNH2997INS
TEMPO 1610/1615 BKN011 OVC016 620113
BECMG 1614/1615 32012KT 9999 SCT010 BKN020 620203 QNH3007INS
BECMG 1620/1621 35012G20KT 9999 FEW035 QNH3016INS
BECMG 1623/1624 02015KT 9999 SKC QNH3021INS
BECMG 1713/1714 36010KT 9999 SKC QNH3042INS TX02/1619Z TNM05/1710Z



MET'MAP, your aeronautical weather chart ! - Copyright ORBIFLY December 2007 - Disclaimer

ORBIFLY MET'MAP TEAM :

Programming & Development : Alexandra Zaïnal
Concept & original design : Baudouin d'Aumeries
Assistance for programming : Marc-Olivier Méhu
Technical & hardware support : Manuel Goepfert

Contact : metmap@orbifly.com




SOURCES & CREDITS :

   NOAA       Earth
Advisory